Airport View

Enter AWOS ICAO identifier for current METAR.

ex. KFNL

KBPG 212335Z AUTO 16013G18KT 10SM SCT110 28/18 A2998 RMK AO2 LTG DSNT SW T02750175

21 Sep 2019 23:56

Frequency: 118.025

Phone: 432-263-3842

Other Area AWOS: KMDD - K2F5 - KMAF - KSNK

TAF AMD KMAF 211937Z 2120/2218 17011KT P6SM SCT030 BKN100 TEMPO 2121/2201 VRB20G35KT 5SM TSRA BKN035CB FM220300 13010KT P6SM BKN050 TEMPO 2203/2207 VRB20G30KT 2SM TSRA BKN030CB FM221100 18007KT P6SM BKN100